createdAt,value
2023-03-17T00:03:24.595Z,95477.00
2023-03-17T00:07:27.472Z,95469.00
2023-03-17T00:11:31.628Z,95466.00
2023-03-17T00:15:34.591Z,95464.00
2023-03-17T00:19:37.484Z,95450.00
2023-03-17T00:23:40.934Z,95462.00
2023-03-17T00:27:45.113Z,95446.00
2023-03-17T00:31:48.107Z,95444.00
2023-03-17T00:35:50.972Z,95441.00
2023-03-17T00:39:54.560Z,95431.00
2023-03-17T00:43:58.814Z,95434.00
2023-03-17T00:48:01.825Z,95429.00
2023-03-17T00:52:05.006Z,95438.00
2023-03-17T00:56:14.343Z,95434.00
2023-03-17T01:00:25.621Z,95431.00
2023-03-17T01:04:28.671Z,95417.00
2023-03-17T01:08:32.282Z,95420.00
2023-03-17T01:12:35.241Z,95429.00
2023-03-17T01:16:39.869Z,95425.00
2023-03-17T01:20:43.734Z,95412.00
2023-03-17T01:24:48.148Z,95403.00
2023-03-17T01:28:50.979Z,95395.00
2023-03-17T01:32:55.757Z,95390.00
2023-03-17T01:36:59.972Z,95381.00
2023-03-17T01:41:03.328Z,95380.00
2023-03-17T01:45:10.339Z,95368.00
2023-03-17T01:49:19.981Z,95355.00
2023-03-17T01:53:23.784Z,95364.00
2023-03-17T01:57:31.402Z,95358.00
2023-03-17T02:01:38.785Z,95366.00
2023-03-17T02:05:43.114Z,95346.00
2023-03-17T02:09:46.088Z,95340.00
2023-03-17T02:13:49.055Z,95326.00
2023-03-17T02:17:51.845Z,95309.00
2023-03-17T02:21:58.023Z,95311.00
2023-03-17T02:26:00.858Z,95300.00
2023-03-17T02:30:03.952Z,95299.00
2023-03-17T02:34:06.805Z,95306.00
2023-03-17T02:38:10.995Z,95305.00
2023-03-17T02:42:14.791Z,95290.00
2023-03-17T02:46:17.773Z,95293.00
2023-03-17T02:50:23.198Z,95292.00
2023-03-17T02:54:27.557Z,95294.00
2023-03-17T02:58:30.433Z,95294.00
2023-03-17T03:02:33.342Z,95292.00
2023-03-17T03:06:37.453Z,95291.00
2023-03-17T03:10:41.749Z,95294.00
2023-03-17T03:14:44.574Z,95284.00
2023-03-17T03:18:47.477Z,95288.00
2023-03-17T03:22:50.658Z,95281.00
2023-03-17T03:26:54.825Z,95281.00
2023-03-17T03:30:57.649Z,95285.00
2023-03-17T03:35:00.457Z,95282.00
2023-03-17T03:39:03.324Z,95277.00
2023-03-17T03:43:21.783Z,95284.00
2023-03-17T03:47:26.304Z,95291.00
2023-03-17T03:51:29.098Z,95275.00
2023-03-17T03:55:32.107Z,95271.00
2023-03-17T03:59:36.485Z,95269.00
2023-03-17T04:03:39.327Z,95260.00
2023-03-17T04:07:43.186Z,95267.00
2023-03-17T04:11:45.995Z,95264.00
2023-03-17T04:15:50.213Z,95269.00
2023-03-17T04:19:53.358Z,95267.00
2023-03-17T04:23:56.184Z,95256.00
2023-03-17T04:27:59.312Z,95260.00
2023-03-17T04:32:03.746Z,95280.00
2023-03-17T04:36:07.748Z,95283.00
2023-03-17T04:40:12.637Z,95277.00
2023-03-17T04:44:15.469Z,95283.00
2023-03-17T04:48:19.628Z,95278.00
2023-03-17T04:52:22.578Z,95277.00
2023-03-17T04:56:25.420Z,95272.00
2023-03-17T05:00:28.676Z,95265.00
2023-03-17T05:04:33.041Z,95289.00
2023-03-17T05:08:36.303Z,95281.00
2023-03-17T05:12:39.094Z,95272.00
2023-03-17T05:16:41.940Z,95276.00
2023-03-17T05:20:46.203Z,95278.00
2023-03-17T05:24:49.018Z,95275.00
2023-03-17T05:28:51.920Z,95273.00
2023-03-17T05:32:54.799Z,95275.00
2023-03-17T05:36:59.004Z,95263.00
2023-03-17T05:41:02.821Z,95261.00
2023-03-17T05:45:07.225Z,95264.00
2023-03-17T05:49:10.083Z,95251.00
2023-03-17T05:53:14.269Z,95261.00
2023-03-17T05:57:17.195Z,95256.00
2023-03-17T06:01:20.004Z,95259.00
2023-03-17T06:05:22.870Z,95259.00
2023-03-17T06:09:27.166Z,95265.00
2023-03-17T06:13:30.053Z,95252.00
2023-03-17T06:17:32.937Z,95248.00
2023-03-17T06:21:35.747Z,95252.00
2023-03-17T06:25:39.964Z,95234.00
2023-03-17T06:29:42.751Z,95247.00
2023-03-17T06:33:45.550Z,95249.00
2023-03-17T06:37:48.373Z,95262.00
2023-03-17T06:41:52.731Z,95265.00
2023-03-17T06:45:55.648Z,95259.00
2023-03-17T06:49:58.561Z,95254.00
2023-03-17T06:54:01.453Z,95258.00
2023-03-17T06:58:05.618Z,95263.00
2023-03-17T07:02:08.536Z,95265.00
2023-03-17T07:06:11.372Z,95265.00
2023-03-17T07:10:17.208Z,95275.00
2023-03-17T07:14:21.496Z,95278.00
2023-03-17T07:18:24.400Z,95283.00
2023-03-17T07:22:27.196Z,95284.00
2023-03-17T07:26:30.022Z,95295.00
2023-03-17T07:30:34.218Z,95318.00
2023-03-17T07:34:37.415Z,95317.00
2023-03-17T07:38:40.221Z,95323.00
2023-03-17T07:42:43.627Z,95326.00
2023-03-17T07:46:47.867Z,95332.00
2023-03-17T07:50:50.792Z,95327.00
2023-03-17T07:54:53.931Z,95334.00
2023-03-17T07:58:58.425Z,95343.00
2023-03-17T08:03:10.272Z,95351.00
2023-03-17T08:07:14.603Z,95353.00
2023-03-17T08:11:17.594Z,95346.00
2023-03-17T08:15:21.946Z,95353.00
2023-03-17T08:19:26.137Z,95350.00
2023-03-17T08:23:29.145Z,95350.00
2023-03-17T08:27:33.810Z,95335.00
2023-03-17T08:31:37.450Z,95324.00
2023-03-17T08:35:43.601Z,95342.00
2023-03-17T08:39:46.764Z,95350.00
2023-03-17T08:43:50.362Z,95349.00
2023-03-17T08:47:53.475Z,95361.00
2023-03-17T08:51:57.590Z,95362.00
2023-03-17T08:56:00.522Z,95369.00
2023-03-17T09:00:09.619Z,95368.00
2023-03-17T09:04:12.336Z,95354.00
2023-03-17T09:08:16.573Z,95354.00
2023-03-17T09:12:19.376Z,95351.00
2023-03-17T09:16:23.781Z,95346.00
2023-03-17T09:20:27.008Z,95353.00
2023-03-17T09:24:31.273Z,95338.00
2023-03-17T09:28:35.194Z,95345.00
2023-03-17T09:32:38.185Z,95336.00
2023-03-17T09:36:40.934Z,95342.00
2023-03-17T09:40:50.185Z,95342.00
2023-03-17T09:45:10.665Z,95344.00
2023-03-17T09:49:16.233Z,95340.00
2023-03-17T09:53:22.987Z,95355.00
2023-03-17T09:57:30.502Z,95337.00
2023-03-17T10:01:33.540Z,95346.00
2023-03-17T10:05:36.753Z,95343.00
2023-03-17T10:09:46.150Z,95338.00
2023-03-17T10:13:58.922Z,95331.00
2023-03-17T10:18:02.432Z,95328.00
2023-03-17T10:22:08.089Z,95333.00
2023-03-17T10:26:24.909Z,95337.00
2023-03-17T10:30:33.643Z,95344.00
2023-03-17T10:34:39.478Z,95338.00
2023-03-17T10:38:43.179Z,95333.00
2023-03-17T10:42:49.067Z,95326.00
2023-03-17T10:47:00.631Z,95329.00
2023-03-17T10:51:08.456Z,95332.00
2023-03-17T10:55:15.617Z,95329.00
2023-03-17T10:59:20.494Z,95328.00
2023-03-17T11:03:28.449Z,95320.00
2023-03-17T11:07:39.424Z,95327.00
2023-03-17T11:11:47.153Z,95322.00
2023-03-17T11:15:54.331Z,95321.00
2023-03-17T11:20:09.637Z,95317.00
2023-03-17T11:24:16.860Z,95301.00
2023-03-17T11:28:21.642Z,95303.00
2023-03-17T11:32:29.640Z,95305.00
2023-03-17T11:36:47.025Z,95298.00
2023-03-17T11:41:08.898Z,95293.00
2023-03-17T11:45:20.868Z,95281.00
2023-03-17T11:49:29.991Z,95280.00
2023-03-17T11:53:56.876Z,95278.00
2023-03-17T11:58:03.212Z,95286.00
2023-03-17T12:02:17.303Z,95279.00
2023-03-17T12:06:22.310Z,95263.00
2023-03-17T12:10:30.947Z,95269.00
2023-03-17T12:14:39.439Z,95261.00
2023-03-17T12:18:49.736Z,95265.00
2023-03-17T12:22:58.755Z,95257.00
2023-03-17T12:27:06.924Z,95258.00
2023-03-17T12:31:14.821Z,95251.00
2023-03-17T12:35:27.847Z,95251.00
2023-03-17T12:39:33.557Z,95247.00
2023-03-17T12:43:47.914Z,95251.00
2023-03-17T12:48:11.103Z,95244.00
2023-03-17T12:52:38.737Z,95249.00
2023-03-17T12:56:46.102Z,95251.00
2023-03-17T13:00:57.633Z,95241.00
2023-03-17T13:05:01.772Z,95234.00
2023-03-17T13:09:37.281Z,95226.00
2023-03-17T13:13:45.691Z,95222.00
2023-03-17T13:17:50.129Z,95227.00
2023-03-17T13:22:18.665Z,95226.00
2023-03-17T13:26:44.712Z,95221.00
2023-03-17T13:30:58.276Z,95219.00
2023-03-17T13:35:22.136Z,95223.00
2023-03-17T13:39:56.307Z,95223.00
2023-03-17T13:44:15.365Z,95213.00
2023-03-17T13:48:39.118Z,95208.00
2023-03-17T13:52:44.337Z,95208.00
2023-03-17T13:56:49.307Z,95202.00
2023-03-17T14:01:00.667Z,95192.00
2023-03-17T14:05:07.407Z,95194.00
2023-03-17T14:09:19.290Z,95186.00
2023-03-17T14:13:26.503Z,95187.00
2023-03-17T14:17:34.155Z,95185.00
2023-03-17T14:21:37.129Z,95179.00
2023-03-17T14:25:40.597Z,95180.00
2023-03-17T14:29:43.540Z,95178.00
2023-03-17T14:33:47.702Z,95174.00
2023-03-17T14:37:51.973Z,95168.00
2023-03-17T14:42:00.245Z,95151.00
2023-03-17T14:46:04.534Z,95153.00
2023-03-17T14:50:17.361Z,95155.00
2023-03-17T14:54:22.762Z,95143.00
2023-03-17T14:58:28.395Z,95142.00
2023-03-17T15:02:35.270Z,95142.00
2023-03-17T15:06:48.913Z,95135.00
2023-03-17T15:10:51.763Z,95128.00
2023-03-17T15:14:57.372Z,95130.00
2023-03-17T15:19:06.992Z,95128.00
2023-03-17T15:23:18.374Z,95136.00
2023-03-17T15:27:21.127Z,95125.00
2023-03-17T15:31:28.481Z,95122.00
2023-03-17T15:35:31.487Z,95119.00
2023-03-17T15:39:35.699Z,95122.00
2023-03-17T15:43:38.684Z,95111.00
2023-03-17T15:47:41.796Z,95114.00
2023-03-17T15:51:44.614Z,95108.00
2023-03-17T15:55:49.395Z,95114.00
2023-03-17T15:59:52.499Z,95102.00
2023-03-17T16:03:55.369Z,95107.00
2023-03-17T16:07:58.681Z,95097.00
2023-03-17T16:12:03.125Z,95100.00
2023-03-17T16:16:06.194Z,95099.00
2023-03-17T16:20:23.657Z,95107.00
2023-03-17T16:24:28.166Z,95094.00
2023-03-17T16:28:33.606Z,95087.00
2023-03-17T16:32:36.511Z,95081.00
2023-03-17T16:36:40.202Z,95075.00
2023-03-17T16:40:43.733Z,95093.00
2023-03-17T16:44:48.040Z,95085.00
2023-03-17T16:48:51.457Z,95091.00
2023-03-17T16:52:54.777Z,95092.00
2023-03-17T16:56:57.813Z,95089.00
2023-03-17T17:01:04.648Z,95102.00
2023-03-17T17:05:14.125Z,95101.00
2023-03-17T17:09:17.017Z,95099.00
2023-03-17T17:13:19.863Z,95098.00
2023-03-17T17:17:24.113Z,95101.00
2023-03-17T17:21:27.548Z,95101.00
2023-03-17T17:25:31.065Z,95099.00
2023-03-17T17:29:33.989Z,95088.00
2023-03-17T17:33:38.925Z,95093.00
2023-03-17T17:37:41.720Z,95093.00
2023-03-17T17:41:44.541Z,95083.00
2023-03-17T17:45:49.439Z,95083.00
2023-03-17T17:49:53.577Z,95093.00
2023-03-17T17:53:56.597Z,95096.00
2023-03-17T17:57:59.390Z,95099.00
2023-03-17T18:02:03.286Z,95098.00
2023-03-17T18:06:07.554Z,95103.00
2023-03-17T18:10:17.073Z,95099.00
2023-03-17T18:14:19.835Z,95107.00
2023-03-17T18:18:22.730Z,95116.00
2023-03-17T18:22:27.025Z,95107.00
2023-03-17T18:26:29.763Z,95104.00
2023-03-17T18:30:34.766Z,95114.00
2023-03-17T18:34:43.384Z,95120.00
2023-03-17T18:38:47.558Z,95119.00
2023-03-17T18:42:50.380Z,95118.00
2023-03-17T18:46:53.236Z,95119.00
2023-03-17T18:50:56.122Z,95115.00
2023-03-17T18:55:00.589Z,95118.00
2023-03-17T18:59:03.466Z,95112.00
2023-03-17T19:03:06.447Z,95122.00
2023-03-17T19:07:09.258Z,95126.00
2023-03-17T19:11:15.356Z,95125.00
2023-03-17T19:15:18.385Z,95131.00
2023-03-17T19:19:21.505Z,95120.00
2023-03-17T19:23:24.664Z,95115.00
2023-03-17T19:27:28.815Z,95107.00
2023-03-17T19:31:31.678Z,95127.00
2023-03-17T19:35:34.541Z,95130.00
2023-03-17T19:39:37.762Z,95127.00
2023-03-17T19:43:41.997Z,95123.00
2023-03-17T19:47:44.807Z,95129.00
2023-03-17T19:51:48.876Z,95114.00
2023-03-17T19:55:51.692Z,95117.00
2023-03-17T19:59:56.145Z,95118.00
2023-03-17T20:03:59.128Z,95115.00
2023-03-17T20:08:02.092Z,95120.00
2023-03-17T20:12:05.816Z,95117.00
2023-03-17T20:16:10.583Z,95124.00
2023-03-17T20:20:15.336Z,95111.00
2023-03-17T20:24:18.140Z,95123.00
2023-03-17T20:28:22.049Z,95126.00
2023-03-17T20:32:27.554Z,95130.00
2023-03-17T20:36:30.413Z,95131.00
2023-03-17T20:40:33.414Z,95131.00
2023-03-17T20:44:36.464Z,95127.00
2023-03-17T20:48:40.848Z,95130.00
2023-03-17T20:52:43.760Z,95130.00
2023-03-17T20:56:48.717Z,95138.00
2023-03-17T21:00:51.577Z,95157.00
2023-03-17T21:04:55.776Z,95152.00
2023-03-17T21:08:58.650Z,95152.00
2023-03-17T21:13:01.487Z,95156.00
2023-03-17T21:17:04.323Z,95150.00
2023-03-17T21:21:08.627Z,95152.00
2023-03-17T21:25:11.727Z,95153.00
2023-03-17T21:29:14.617Z,95148.00
2023-03-17T21:33:17.462Z,95158.00
2023-03-17T21:37:21.623Z,95148.00
2023-03-17T21:41:30.731Z,95177.00
2023-03-17T21:45:33.870Z,95161.00
2023-03-17T21:49:36.728Z,95162.00
2023-03-17T21:53:40.951Z,95167.00
2023-03-17T21:57:43.993Z,95171.00
2023-03-17T22:01:46.805Z,95162.00
2023-03-17T22:05:50.734Z,95154.00
2023-03-17T22:09:56.926Z,95166.00
2023-03-17T22:13:59.905Z,95172.00
2023-03-17T22:18:02.949Z,95172.00
2023-03-17T22:22:06.340Z,95170.00
2023-03-17T22:26:13.410Z,95166.00
2023-03-17T22:30:17.029Z,95167.00
2023-03-17T22:34:20.252Z,95177.00
2023-03-17T22:38:24.832Z,95177.00
2023-03-17T22:42:29.354Z,95172.00
2023-03-17T22:46:32.186Z,95180.00
2023-03-17T22:50:35.029Z,95182.00
2023-03-17T22:54:37.872Z,95186.00
2023-03-17T22:58:42.099Z,95196.00
2023-03-17T23:02:46.271Z,95191.00
2023-03-17T23:06:49.480Z,95192.00
2023-03-17T23:10:53.540Z,95190.00
2023-03-17T23:14:58.209Z,95195.00
2023-03-17T23:19:01.191Z,95195.00
2023-03-17T23:23:04.033Z,95208.00
2023-03-17T23:27:07.917Z,95191.00
2023-03-17T23:31:12.100Z,95196.00
2023-03-17T23:35:15.356Z,95197.00
2023-03-17T23:39:18.386Z,95197.00
2023-03-17T23:43:21.312Z,95205.00
2023-03-17T23:47:26.236Z,95213.00
2023-03-17T23:51:29.074Z,95206.00
2023-03-17T23:55:31.916Z,95212.00
2023-03-17T23:59:35.304Z,95206.00
